sensor_id;sensor_type;location;lat;lon;timestamp;temperature;humidity
77803;DHT22;66993;48.256;16.422;2023-12-29T00:00:17;2.3;96.0
77803;DHT22;66993;48.256;16.422;2023-12-29T00:05:16;2.3;96.0
77803;DHT22;66993;48.256;16.422;2023-12-29T00:10:16;2.4;96.0
77803;DHT22;66993;48.256;16.422;2023-12-29T00:15:17;2.4;96.0
77803;DHT22;66993;48.256;16.422;2023-12-29T00:20:16;2.4;96.0
77803;DHT22;66993;48.256;16.422;2023-12-29T00:25:16;2.4;96.0
77803;DHT22;66993;48.256;16.422;2023-12-29T00:30:16;2.5;96.0
77803;DHT22;66993;48.256;16.422;2023-12-29T00:35:16;2.5;96.0
77803;DHT22;66993;48.256;16.422;2023-12-29T00:40:16;2.5;96.0
77803;DHT22;66993;48.256;16.422;2023-12-29T00:45:16;2.5;95.0
77803;DHT22;66993;48.256;16.422;2023-12-29T00:50:16;2.5;95.0
77803;DHT22;66993;48.256;16.422;2023-12-29T00:55:16;2.6;95.0
77803;DHT22;66993;48.256;16.422;2023-12-29T01:00:16;2.8;95.0
77803;DHT22;66993;48.256;16.422;2023-12-29T01:05:16;2.7;95.0
77803;DHT22;66993;48.256;16.422;2023-12-29T01:10:16;2.7;95.0
77803;DHT22;66993;48.256;16.422;2023-12-29T01:15:16;2.7;95.0
77803;DHT22;66993;48.256;16.422;2023-12-29T01:20:16;2.9;94.0
77803;DHT22;66993;48.256;16.422;2023-12-29T01:25:16;2.9;94.0
77803;DHT22;66993;48.256;16.422;2023-12-29T01:30:16;2.9;94.0
77803;DHT22;66993;48.256;16.422;2023-12-29T01:35:16;2.9;94.0
77803;DHT22;66993;48.256;16.422;2023-12-29T01:40:16;2.9;94.0
77803;DHT22;66993;48.256;16.422;2023-12-29T01:45:20;2.9;94.0
77803;DHT22;66993;48.256;16.422;2023-12-29T01:50:17;2.9;94.0
77803;DHT22;66993;48.256;16.422;2023-12-29T01:55:18;2.9;94.0
77803;DHT22;66993;48.256;16.422;2023-12-29T02:00:16;2.9;93.0
77803;DHT22;66993;48.256;16.422;2023-12-29T02:05:17;2.9;93.0
77803;DHT22;66993;48.256;16.422;2023-12-29T02:10:16;2.9;93.0
77803;DHT22;66993;48.256;16.422;2023-12-29T02:15:16;3.0;93.0
77803;DHT22;66993;48.256;16.422;2023-12-29T02:20:16;3.0;93.0
77803;DHT22;66993;48.256;16.422;2023-12-29T02:25:16;3.0;93.0
77803;DHT22;66993;48.256;16.422;2023-12-29T02:30:18;3.0;93.0
77803;DHT22;66993;48.256;16.422;2023-12-29T02:35:19;3.1;93.0
77803;DHT22;66993;48.256;16.422;2023-12-29T02:40:16;3.0;93.0
77803;DHT22;66993;48.256;16.422;2023-12-29T02:45:17;3.0;93.0
77803;DHT22;66993;48.256;16.422;2023-12-29T02:50:16;3.0;93.0
77803;DHT22;66993;48.256;16.422;2023-12-29T02:55:16;3.1;93.0
77803;DHT22;66993;48.256;16.422;2023-12-29T03:00:16;3.2;93.0
77803;DHT22;66993;48.256;16.422;2023-12-29T03:05:16;3.2;93.0
77803;DHT22;66993;48.256;16.422;2023-12-29T03:10:16;3.2;93.0
77803;DHT22;66993;48.256;16.422;2023-12-29T03:15:16;3.2;93.0
77803;DHT22;66993;48.256;16.422;2023-12-29T03:20:16;3.2;93.0
77803;DHT22;66993;48.256;16.422;2023-12-29T03:25:16;3.2;93.0
77803;DHT22;66993;48.256;16.422;2023-12-29T03:30:16;3.3;93.0
77803;DHT22;66993;48.256;16.422;2023-12-29T03:35:16;3.3;93.0
77803;DHT22;66993;48.256;16.422;2023-12-29T03:40:16;3.3;93.0
77803;DHT22;66993;48.256;16.422;2023-12-29T03:45:16;3.3;93.0
77803;DHT22;66993;48.256;16.422;2023-12-29T03:50:16;3.2;93.0
77803;DHT22;66993;48.256;16.422;2023-12-29T03:55:16;3.3;93.0
77803;DHT22;66993;48.256;16.422;2023-12-29T04:00:16;3.3;93.0
77803;DHT22;66993;48.256;16.422;2023-12-29T04:05:16;3.4;93.0
77803;DHT22;66993;48.256;16.422;2023-12-29T04:10:16;3.4;93.0
77803;DHT22;66993;48.256;16.422;2023-12-29T04:15:16;3.5;93.0
77803;DHT22;66993;48.256;16.422;2023-12-29T04:20:16;3.5;93.0
77803;DHT22;66993;48.256;16.422;2023-12-29T04:25:16;3.6;93.0
77803;DHT22;66993;48.256;16.422;2023-12-29T04:30:16;3.6;93.0
77803;DHT22;66993;48.256;16.422;2023-12-29T04:35:16;3.6;93.0
77803;DHT22;66993;48.256;16.422;2023-12-29T04:40:16;3.5;93.0
77803;DHT22;66993;48.256;16.422;2023-12-29T04:45:16;3.7;93.0
77803;DHT22;66993;48.256;16.422;2023-12-29T04:50:16;3.7;93.0
77803;DHT22;66993;48.256;16.422;2023-12-29T04:55:16;3.9;93.0
77803;DHT22;66993;48.256;16.422;2023-12-29T05:00:16;3.7;93.0
77803;DHT22;66993;48.256;16.422;2023-12-29T05:05:16;3.8;93.0
77803;DHT22;66993;48.256;16.422;2023-12-29T05:10:16;3.8;92.0
77803;DHT22;66993;48.256;16.422;2023-12-29T05:15:16;3.5;92.0
77803;DHT22;66993;48.256;16.422;2023-12-29T05:20:16;3.4;92.0
77803;DHT22;66993;48.256;16.422;2023-12-29T05:25:16;3.4;92.0
77803;DHT22;66993;48.256;16.422;2023-12-29T05:30:16;3.4;92.0
77803;DHT22;66993;48.256;16.422;2023-12-29T05:35:16;3.4;92.0
77803;DHT22;66993;48.256;16.422;2023-12-29T05:40:16;3.3;92.0
77803;DHT22;66993;48.256;16.422;2023-12-29T05:45:16;3.2;92.0
77803;DHT22;66993;48.256;16.422;2023-12-29T05:50:16;3.1;92.0
77803;DHT22;66993;48.256;16.422;2023-12-29T05:55:17;2.9;92.0
77803;DHT22;66993;48.256;16.422;2023-12-29T06:00:17;2.6;93.0
77803;DHT22;66993;48.256;16.422;2023-12-29T06:05:16;2.5;93.0
77803;DHT22;66993;48.256;16.422;2023-12-29T06:10:16;2.3;93.0
77803;DHT22;66993;48.256;16.422;2023-12-29T06:15:16;2.2;93.0
77803;DHT22;66993;48.256;16.422;2023-12-29T06:20:16;2.2;93.0
77803;DHT22;66993;48.256;16.422;2023-12-29T06:25:16;2.2;93.0
77803;DHT22;66993;48.256;16.422;2023-12-29T06:30:16;2.1;93.0
77803;DHT22;66993;48.256;16.422;2023-12-29T06:35:16;2.2;93.0
77803;DHT22;66993;48.256;16.422;2023-12-29T06:40:16;2.4;93.0
77803;DHT22;66993;48.256;16.422;2023-12-29T06:45:16;2.5;94.0
77803;DHT22;66993;48.256;16.422;2023-12-29T06:50:16;2.4;94.0
77803;DHT22;66993;48.256;16.422;2023-12-29T06:55:16;2.6;94.0
77803;DHT22;66993;48.256;16.422;2023-12-29T07:00:17;2.5;94.0
77803;DHT22;66993;48.256;16.422;2023-12-29T07:05:16;2.6;94.0
77803;DHT22;66993;48.256;16.422;2023-12-29T07:10:16;2.4;94.0
77803;DHT22;66993;48.256;16.422;2023-12-29T07:15:16;2.5;95.0
77803;DHT22;66993;48.256;16.422;2023-12-29T07:20:16;2.4;95.0
77803;DHT22;66993;48.256;16.422;2023-12-29T07:25:16;2.5;95.0
77803;DHT22;66993;48.256;16.422;2023-12-29T07:30:16;2.4;95.0
77803;DHT22;66993;48.256;16.422;2023-12-29T07:35:16;2.3;95.0
77803;DHT22;66993;48.256;16.422;2023-12-29T07:40:16;2.6;95.0
77803;DHT22;66993;48.256;16.422;2023-12-29T07:45:16;2.9;95.0
77803;DHT22;66993;48.256;16.422;2023-12-29T07:50:16;3.2;95.0
77803;DHT22;66993;48.256;16.422;2023-12-29T07:55:16;3.5;95.0
77803;DHT22;66993;48.256;16.422;2023-12-29T08:00:16;4.0;95.0
77803;DHT22;66993;48.256;16.422;2023-12-29T08:05:16;4.4;95.0
77803;DHT22;66993;48.256;16.422;2023-12-29T08:10:16;4.8;95.0
77803;DHT22;66993;48.256;16.422;2023-12-29T08:15:16;4.9;95.0
77803;DHT22;66993;48.256;16.422;2023-12-29T08:20:16;4.7;94.0
77803;DHT22;66993;48.256;16.422;2023-12-29T08:25:16;4.7;94.0
77803;DHT22;66993;48.256;16.422;2023-12-29T08:30:16;5.0;94.0
77803;DHT22;66993;48.256;16.422;2023-12-29T08:35:16;5.2;94.0
77803;DHT22;66993;48.256;16.422;2023-12-29T08:40:16;5.4;93.0
77803;DHT22;66993;48.256;16.422;2023-12-29T08:45:16;5.5;93.0
77803;DHT22;66993;48.256;16.422;2023-12-29T08:50:16;5.6;92.0
77803;DHT22;66993;48.256;16.422;2023-12-29T08:55:16;5.8;92.0
77803;DHT22;66993;48.256;16.422;2023-12-29T09:00:16;5.8;90.0
77803;DHT22;66993;48.256;16.422;2023-12-29T09:05:16;5.9;90.0
77803;DHT22;66993;48.256;16.422;2023-12-29T09:10:16;5.8;89.0
77803;DHT22;66993;48.256;16.422;2023-12-29T09:15:16;5.9;89.0
77803;DHT22;66993;48.256;16.422;2023-12-29T09:20:16;6.0;88.0
77803;DHT22;66993;48.256;16.422;2023-12-29T09:25:16;6.3;88.0
77803;DHT22;66993;48.256;16.422;2023-12-29T09:30:16;6.3;87.0
77803;DHT22;66993;48.256;16.422;2023-12-29T09:35:16;6.4;86.0
77803;DHT22;66993;48.256;16.422;2023-12-29T09:40:16;6.4;85.0
77803;DHT22;66993;48.256;16.422;2023-12-29T09:45:17;6.4;84.0
77803;DHT22;66993;48.256;16.422;2023-12-29T09:50:16;6.7;84.0
77803;DHT22;66993;48.256;16.422;2023-12-29T09:55:16;6.9;84.0
77803;DHT22;66993;48.256;16.422;2023-12-29T10:00:17;6.8;84.0
77803;DHT22;66993;48.256;16.422;2023-12-29T10:05:16;7.3;84.0
77803;DHT22;66993;48.256;16.422;2023-12-29T10:10:16;7.7;84.0
77803;DHT22;66993;48.256;16.422;2023-12-29T10:15:17;7.9;84.0
77803;DHT22;66993;48.256;16.422;2023-12-29T10:20:21;7.9;84.0
77803;DHT22;66993;48.256;16.422;2023-12-29T10:25:16;7.8;83.0
77803;DHT22;66993;48.256;16.422;2023-12-29T10:30:16;8.2;83.0
77803;DHT22;66993;48.256;16.422;2023-12-29T10:35:16;8.7;81.0
77803;DHT22;66993;48.256;16.422;2023-12-29T10:40:17;8.6;80.0
77803;DHT22;66993;48.256;16.422;2023-12-29T10:45:16;9.1;80.0
77803;DHT22;66993;48.256;16.422;2023-12-29T10:50:16;10.1;80.0
77803;DHT22;66993;48.256;16.422;2023-12-29T10:55:16;10.5;80.0
77803;DHT22;66993;48.256;16.422;2023-12-29T11:00:17;10.9;80.0
77803;DHT22;66993;48.256;16.422;2023-12-29T11:05:16;11.4;79.0
77803;DHT22;66993;48.256;16.422;2023-12-29T11:10:16;11.5;77.0
77803;DHT22;66993;48.256;16.422;2023-12-29T11:15:16;11.5;77.0
77803;DHT22;66993;48.256;16.422;2023-12-29T11:20:16;11.6;77.0
77803;DHT22;66993;48.256;16.422;2023-12-29T11:25:16;11.7;77.0
77803;DHT22;66993;48.256;16.422;2023-12-29T11:30:16;12.7;76.0
77803;DHT22;66993;48.256;16.422;2023-12-29T11:35:17;12.7;76.0
77803;DHT22;66993;48.256;16.422;2023-12-29T11:40:18;12.2;76.0
77803;DHT22;66993;48.256;16.422;2023-12-29T11:45:24;12.4;75.0
77803;DHT22;66993;48.256;16.422;2023-12-29T11:50:16;12.9;71.0
77803;DHT22;66993;48.256;16.422;2023-12-29T11:55:16;13.9;64.0
77803;DHT22;66993;48.256;16.422;2023-12-29T12:00:16;14.4;56.0
77803;DHT22;66993;48.256;16.422;2023-12-29T12:05:26;15.2;54.0
77803;DHT22;66993;48.256;16.422;2023-12-29T12:10:31;16.2;51.0
77803;DHT22;66993;48.256;16.422;2023-12-29T12:15:32;16.0;48.0
77803;DHT22;66993;48.256;16.422;2023-12-29T12:20:16;15.7;45.0
77803;DHT22;66993;48.256;16.422;2023-12-29T12:25:16;15.6;46.0
77803;DHT22;66993;48.256;16.422;2023-12-29T12:30:18;15.3;47.0
77803;DHT22;66993;48.256;16.422;2023-12-29T12:35:16;15.3;48.0
77803;DHT22;66993;48.256;16.422;2023-12-29T12:40:24;15.1;48.0
77803;DHT22;66993;48.256;16.422;2023-12-29T12:45:17;15.1;49.0
77803;DHT22;66993;48.256;16.422;2023-12-29T12:50:16;15.0;50.0
77803;DHT22;66993;48.256;16.422;2023-12-29T12:55:16;15.0;50.0
77803;DHT22;66993;48.256;16.422;2023-12-29T13:00:16;15.0;50.0
77803;DHT22;66993;48.256;16.422;2023-12-29T13:05:16;14.9;50.0
77803;DHT22;66993;48.256;16.422;2023-12-29T13:10:16;14.8;51.0
77803;DHT22;66993;48.256;16.422;2023-12-29T13:15:16;14.7;51.0
77803;DHT22;66993;48.256;16.422;2023-12-29T13:20:16;14.7;52.0
77803;DHT22;66993;48.256;16.422;2023-12-29T13:25:18;14.7;52.0
77803;DHT22;66993;48.256;16.422;2023-12-29T13:30:16;14.7;52.0
77803;DHT22;66993;48.256;16.422;2023-12-29T13:35:17;14.6;52.0
77803;DHT22;66993;48.256;16.422;2023-12-29T13:40:17;14.6;53.0
77803;DHT22;66993;48.256;16.422;2023-12-29T13:45:16;14.6;53.0
77803;DHT22;66993;48.256;16.422;2023-12-29T13:50:16;14.5;53.0
77803;DHT22;66993;48.256;16.422;2023-12-29T13:55:20;14.4;54.0
77803;DHT22;66993;48.256;16.422;2023-12-29T14:00:17;14.2;54.0
77803;DHT22;66993;48.256;16.422;2023-12-29T14:05:18;14.1;56.0
77803;DHT22;66993;48.256;16.422;2023-12-29T14:10:16;13.7;57.0
77803;DHT22;66993;48.256;16.422;2023-12-29T14:15:16;13.5;58.0
77803;DHT22;66993;48.256;16.422;2023-12-29T14:20:32;13.4;59.0
77803;DHT22;66993;48.256;16.422;2023-12-29T14:25:16;13.4;60.0
77803;DHT22;66993;48.256;16.422;2023-12-29T14:30:18;13.4;61.0
77803;DHT22;66993;48.256;16.422;2023-12-29T14:35:16;13.3;62.0
77803;DHT22;66993;48.256;16.422;2023-12-29T14:40:16;12.9;63.0
77803;DHT22;66993;48.256;16.422;2023-12-29T14:45:16;12.4;63.0
77803;DHT22;66993;48.256;16.422;2023-12-29T14:50:16;12.1;65.0
77803;DHT22;66993;48.256;16.422;2023-12-29T14:55:16;12.0;66.0
77803;DHT22;66993;48.256;16.422;2023-12-29T15:00:16;11.9;66.0
77803;DHT22;66993;48.256;16.422;2023-12-29T15:05:16;12.1;67.0
77803;DHT22;66993;48.256;16.422;2023-12-29T15:10:16;12.6;67.0
77803;DHT22;66993;48.256;16.422;2023-12-29T15:15:16;13.1;67.0
77803;DHT22;66993;48.256;16.422;2023-12-29T15:20:16;13.1;66.0
77803;DHT22;66993;48.256;16.422;2023-12-29T15:25:16;13.1;66.0
77803;DHT22;66993;48.256;16.422;2023-12-29T15:30:16;13.1;64.0
77803;DHT22;66993;48.256;16.422;2023-12-29T15:35:16;13.2;64.0
77803;DHT22;66993;48.256;16.422;2023-12-29T15:40:16;13.4;63.0
77803;DHT22;66993;48.256;16.422;2023-12-29T15:45:16;13.3;63.0
77803;DHT22;66993;48.256;16.422;2023-12-29T15:50:16;13.3;62.0
77803;DHT22;66993;48.256;16.422;2023-12-29T15:55:16;13.1;62.0
77803;DHT22;66993;48.256;16.422;2023-12-29T16:00:16;12.9;62.0
77803;DHT22;66993;48.256;16.422;2023-12-29T16:05:16;12.9;63.0
77803;DHT22;66993;48.256;16.422;2023-12-29T16:10:16;13.0;63.0
77803;DHT22;66993;48.256;16.422;2023-12-29T16:15:16;13.0;63.0
77803;DHT22;66993;48.256;16.422;2023-12-29T16:20:16;12.8;63.0
77803;DHT22;66993;48.256;16.422;2023-12-29T16:25:16;12.8;64.0
77803;DHT22;66993;48.256;16.422;2023-12-29T16:30:16;12.4;64.0
77803;DHT22;66993;48.256;16.422;2023-12-29T16:35:16;11.9;64.0
77803;DHT22;66993;48.256;16.422;2023-12-29T16:40:16;11.6;65.0
77803;DHT22;66993;48.256;16.422;2023-12-29T16:45:16;11.1;65.0
77803;DHT22;66993;48.256;16.422;2023-12-29T16:50:16;10.7;67.0
77803;DHT22;66993;48.256;16.422;2023-12-29T16:55:16;10.3;68.0
77803;DHT22;66993;48.256;16.422;2023-12-29T17:00:17;9.5;68.0
77803;DHT22;66993;48.256;16.422;2023-12-29T17:05:16;9.6;69.0
77803;DHT22;66993;48.256;16.422;2023-12-29T17:10:16;9.6;71.0
77803;DHT22;66993;48.256;16.422;2023-12-29T17:15:16;9.4;73.0
77803;DHT22;66993;48.256;16.422;2023-12-29T17:20:16;9.3;74.0
77803;DHT22;66993;48.256;16.422;2023-12-29T17:25:16;9.1;74.0
77803;DHT22;66993;48.256;16.422;2023-12-29T17:30:16;9.0;75.0
77803;DHT22;66993;48.256;16.422;2023-12-29T17:35:16;8.8;75.0
77803;DHT22;66993;48.256;16.422;2023-12-29T17:40:16;8.7;75.0
77803;DHT22;66993;48.256;16.422;2023-12-29T17:45:16;8.7;75.0
77803;DHT22;66993;48.256;16.422;2023-12-29T17:50:16;8.5;75.0
77803;DHT22;66993;48.256;16.422;2023-12-29T17:55:16;8.3;75.0
77803;DHT22;66993;48.256;16.422;2023-12-29T18:00:16;8.1;75.0
77803;DHT22;66993;48.256;16.422;2023-12-29T18:05:16;7.9;76.0
77803;DHT22;66993;48.256;16.422;2023-12-29T18:10:16;7.7;76.0
77803;DHT22;66993;48.256;16.422;2023-12-29T18:15:16;7.6;77.0
77803;DHT22;66993;48.256;16.422;2023-12-29T18:20:16;7.9;77.0
77803;DHT22;66993;48.256;16.422;2023-12-29T18:25:16;7.4;77.0
77803;DHT22;66993;48.256;16.422;2023-12-29T18:30:16;7.5;78.0
77803;DHT22;66993;48.256;16.422;2023-12-29T18:35:17;7.6;78.0
77803;DHT22;66993;48.256;16.422;2023-12-29T18:40:16;7.9;78.0
77803;DHT22;66993;48.256;16.422;2023-12-29T18:45:16;7.6;79.0
77803;DHT22;66993;48.256;16.422;2023-12-29T18:50:16;7.3;79.0
77803;DHT22;66993;48.256;16.422;2023-12-29T18:55:16;7.1;79.0
77803;DHT22;66993;48.256;16.422;2023-12-29T19:00:17;6.8;79.0
77803;DHT22;66993;48.256;16.422;2023-12-29T19:05:16;6.6;79.0
77803;DHT22;66993;48.256;16.422;2023-12-29T19:10:16;6.9;79.0
77803;DHT22;66993;48.256;16.422;2023-12-29T19:15:16;6.6;79.0
77803;DHT22;66993;48.256;16.422;2023-12-29T19:20:16;6.4;79.0
77803;DHT22;66993;48.256;16.422;2023-12-29T19:25:16;6.5;79.0
77803;DHT22;66993;48.256;16.422;2023-12-29T19:30:16;6.4;79.0
77803;DHT22;66993;48.256;16.422;2023-12-29T19:35:16;6.3;80.0
77803;DHT22;66993;48.256;16.422;2023-12-29T19:40:16;6.4;81.0
77803;DHT22;66993;48.256;16.422;2023-12-29T19:45:16;6.5;81.0
77803;DHT22;66993;48.256;16.422;2023-12-29T19:50:16;6.3;82.0
77803;DHT22;66993;48.256;16.422;2023-12-29T19:55:16;6.4;82.0
77803;DHT22;66993;48.256;16.422;2023-12-29T20:00:16;6.3;82.0
77803;DHT22;66993;48.256;16.422;2023-12-29T20:05:16;6.1;83.0
77803;DHT22;66993;48.256;16.422;2023-12-29T20:10:16;6.1;83.0
77803;DHT22;66993;48.256;16.422;2023-12-29T20:15:16;5.9;83.0
77803;DHT22;66993;48.256;16.422;2023-12-29T20:20:16;5.9;83.0
77803;DHT22;66993;48.256;16.422;2023-12-29T20:25:16;6.1;83.0
77803;DHT22;66993;48.256;16.422;2023-12-29T20:30:16;5.9;83.0
77803;DHT22;66993;48.256;16.422;2023-12-29T20:35:16;5.7;84.0
77803;DHT22;66993;48.256;16.422;2023-12-29T20:40:16;5.7;84.0
77803;DHT22;66993;48.256;16.422;2023-12-29T20:45:16;5.6;84.0
77803;DHT22;66993;48.256;16.422;2023-12-29T20:50:16;5.5;84.0
77803;DHT22;66993;48.256;16.422;2023-12-29T20:55:16;5.2;84.0
77803;DHT22;66993;48.256;16.422;2023-12-29T21:00:17;5.0;84.0
77803;DHT22;66993;48.256;16.422;2023-12-29T21:05:16;5.3;84.0
77803;DHT22;66993;48.256;16.422;2023-12-29T21:10:16;5.3;85.0
77803;DHT22;66993;48.256;16.422;2023-12-29T21:15:16;5.1;85.0
77803;DHT22;66993;48.256;16.422;2023-12-29T21:20:16;4.7;85.0
77803;DHT22;66993;48.256;16.422;2023-12-29T21:25:16;4.5;85.0
77803;DHT22;66993;48.256;16.422;2023-12-29T21:30:16;5.0;85.0
77803;DHT22;66993;48.256;16.422;2023-12-29T21:35:16;5.0;85.0
77803;DHT22;66993;48.256;16.422;2023-12-29T21:40:16;5.0;85.0
77803;DHT22;66993;48.256;16.422;2023-12-29T21:45:16;4.8;85.0
77803;DHT22;66993;48.256;16.422;2023-12-29T21:50:16;4.5;85.0
77803;DHT22;66993;48.256;16.422;2023-12-29T21:55:16;4.7;86.0
77803;DHT22;66993;48.256;16.422;2023-12-29T22:00:16;4.4;87.0
77803;DHT22;66993;48.256;16.422;2023-12-29T22:05:16;4.7;87.0
77803;DHT22;66993;48.256;16.422;2023-12-29T22:10:16;4.7;87.0
77803;DHT22;66993;48.256;16.422;2023-12-29T22:15:16;5.2;88.0
77803;DHT22;66993;48.256;16.422;2023-12-29T22:20:16;4.8;87.0
77803;DHT22;66993;48.256;16.422;2023-12-29T22:25:16;4.8;87.0
77803;DHT22;66993;48.256;16.422;2023-12-29T22:30:17;4.8;87.0
77803;DHT22;66993;48.256;16.422;2023-12-29T22:35:16;4.7;87.0
77803;DHT22;66993;48.256;16.422;2023-12-29T22:40:16;4.2;88.0
77803;DHT22;66993;48.256;16.422;2023-12-29T22:45:16;3.9;88.0
77803;DHT22;66993;48.256;16.422;2023-12-29T22:50:17;3.9;88.0
77803;DHT22;66993;48.256;16.422;2023-12-29T22:55:16;3.5;88.0
77803;DHT22;66993;48.256;16.422;2023-12-29T23:00:16;3.3;88.0
77803;DHT22;66993;48.256;16.422;2023-12-29T23:05:16;3.2;89.0
77803;DHT22;66993;48.256;16.422;2023-12-29T23:10:16;3.3;89.0
77803;DHT22;66993;48.256;16.422;2023-12-29T23:15:16;3.1;89.0
77803;DHT22;66993;48.256;16.422;2023-12-29T23:20:16;3.0;89.0
77803;DHT22;66993;48.256;16.422;2023-12-29T23:25:16;3.1;89.0
77803;DHT22;66993;48.256;16.422;2023-12-29T23:30:16;3.0;89.0
77803;DHT22;66993;48.256;16.422;2023-12-29T23:35:16;2.9;89.0
77803;DHT22;66993;48.256;16.422;2023-12-29T23:40:16;2.9;89.0
77803;DHT22;66993;48.256;16.422;2023-12-29T23:45:16;2.7;89.0
77803;DHT22;66993;48.256;16.422;2023-12-29T23:50:16;2.8;89.0
77803;DHT22;66993;48.256;16.422;2023-12-29T23:55:16;2.9;89.0
